Elliot Chaparral Reserve, California Weather observations

Data are for 10 minute period ending at time listed.
 Day   Time   Solar   Ave.   Ave.  Ave.  Vector  Max.   Baro.   Total    
  of    of     Rad.   Air    Rel.  Wind   Wind   Wind  Press.  Precip.   
Year   Day            Temp.  Hum.  Speed  Dir.   Gust                    
2015   (PST)  Kw/m2    F      %     mph   deg.    mph    mb.     in.     
-------------------------------------------------------------------------
 147    8:40   0.13   59.2    87    7.8   281     9.6   987.0    0.00 
 147    8:50   0.15   59.4    85    7.0   294     9.0   986.9    0.00 
 147    9:00   0.15   60.1    83    3.5   297     5.3   986.9    0.00 
 147    9:10   0.15   60.7    81    4.6   346     7.0   986.9    0.00 
 147    9:20   0.12   60.8    80    3.7   329     5.8   987.0    0.00 
 147    9:30   0.13   60.9    80    4.1   316     6.6   987.1    0.00 
 147    9:40   0.10   61.0    79    4.8   316     8.3   987.1    0.00 
 147    9:50   0.15   60.9    80    5.4   297     7.7   987.2    0.00 
 147   10:00   0.14   61.1    79    6.3   299     8.5   987.2    0.00 
 147   10:10   0.13   60.9    80    7.4   307     9.8   987.3    0.00 
 147   10:20   0.15   60.4    82    7.9   296     9.9   987.3    0.00 
 147   10:30   0.17   60.7    81    6.7   303     9.0   987.3    0.00 
 147   10:40   0.17   60.7    81    5.2   314     8.3   987.4    0.00 
 147   10:50   0.19   61.3    80    5.0   299     8.0   987.3    0.00 
 147   11:00   0.29   62.0    79    5.5   300     8.7   987.3    0.00 
 147   11:10   0.32   62.3    77    6.3   308    10.1   987.2    0.00 
 147   11:20   0.39   63.0    75    6.8   279     9.9   987.1    0.00 
 147   11:30   0.66   65.0    72    5.9   301     9.6   987.0    0.00 
 147   11:40   0.63   65.7    69    7.2   296    10.6   986.9    0.00 
 147   11:50   0.58   66.0    68    8.2   288    15.7   986.8    0.00 
 147   12:00   0.60   65.5    69    9.4   279    13.1   986.6    0.00 
 147   12:10   0.48   66.2    66    8.2   284    12.6   986.6    0.00 
 147   12:20   0.47   66.0    67    9.2   287    12.9   986.6    0.00 
 147   12:30   0.54   66.0    67   10.6   293    19.1   986.6    0.00 
 147   12:40   0.47   65.3    68    9.7   286    14.5   986.6    0.00 
 147   12:50   0.50   65.0    69   11.9   284    17.2   986.5    0.00 
 147   13:00   0.85   65.9    67   13.4   275    18.6   986.4    0.00 
 147   13:10   0.79   66.4    66   12.3   287    16.7   986.4    0.00 
 147   13:20   0.95   66.6    65   12.8   286    19.4   986.4    0.00 
 147   13:30   0.85   66.8    65   13.7   288    20.8   986.3    0.00 
 147   13:40   0.75   66.4    65   15.2   282    21.2   986.2    0.00 
 147   13:50   0.85   67.2    64   13.6   285    21.3   986.2    0.00 
 147   14:00   0.83   67.4    63   12.3   282    17.2   986.2    0.00 
 147   14:10   0.82   67.5    63    9.6   292    15.3   986.0    0.00 
 147   14:20   0.79   68.3    61   10.9   282    15.5   985.9    0.00 
 147   14:30   0.73   67.7    62   10.2   278    16.8   986.0    0.00 
 147   14:40   0.74   68.7    60    9.5   292    17.3   986.0    0.00 
 147   14:50   0.71   68.7    60   10.9   283    19.5   986.0    0.00 
 147   15:00   0.68   68.1    61   11.1   285    16.7   985.9    0.00 
 147   15:10   0.66   68.3    60   11.0   292    16.6   985.8    0.00 
 147   15:20   0.62   67.8    61   11.7   285    16.6   985.6    0.00 
 147   15:30   0.59   67.7    62   11.1   276    16.7   985.5    0.00 
 147   15:40   0.56   67.8    61    9.7   281    15.9   985.6    0.00 
 147   15:50   0.52   67.7    62   10.3   287    14.4   985.6    0.00 
 147   16:00   0.50   67.6    62   10.3   301    16.0   985.6    0.00 
 147   16:10   0.46   67.1    63   13.0   289    19.1   985.5    0.00 
 147   16:20   0.39   66.7    63   12.9   284    18.4   985.5    0.00 
 147   16:30   0.31   65.3    66   13.7   293    18.3   985.5    0.00 
 147   16:40   0.36   65.0    67   13.8   296    18.2   985.5    0.00 
 147   16:50   0.33   65.2    66   12.5   289    16.8   985.5    0.00 
 147   17:00   0.25   64.0    68   12.8   281    16.5   985.6    0.00 
 147   17:10   0.25   64.0    68   12.1   284    16.2   985.5    0.00 
 147   17:20   0.21   63.6    69   12.0   292    15.9   985.6    0.00 
 147   17:30   0.17   63.3    69   10.9   287    15.9   985.6    0.00 
 147   17:40   0.13   63.0    70   10.4   289    15.1   985.6    0.00 
 147   17:50   0.07   62.1    71   10.5   298    13.8   985.6    0.00 
 147   18:00   0.07   61.1    73   10.7   304    13.7   985.7    0.00 
 147   18:10   0.06   60.9    74   10.0   297    14.5   985.8    0.00 
 147   18:20   0.03   60.2    75   10.2   292    12.6   985.9    0.00 
 147   18:30   0.01   59.3    78    9.9   287    12.6   986.0    0.00 
 147   18:40   0.01   58.9    79    9.1   288    11.8   986.0    0.00 
 147   18:50   0.00   58.7    80    8.1   292    11.1   986.0    0.00 
 147   19:00   0.00   58.6    80    6.7   301     8.8   986.0    0.00 
 147   19:10   0.00   58.7    80    6.3   313     9.1   986.1    0.00 
 147   19:20   0.00   58.5    80    7.2   306    10.6   986.1    0.00 
 147   19:30   0.00   58.4    81    7.4   297    10.9   986.1    0.00 
 147   19:40   0.00   58.4    81    8.0   301    10.8   986.2    0.00 
 147   19:50   0.00   58.3    82    8.6   295    11.1   986.2    0.00 
 147   20:00   0.00   58.3    82    7.3   306     9.3   986.2    0.00 
 147   20:10   0.00   58.3    82    6.2   325     8.8   986.2    0.00 
 147   20:20   0.00   58.3    82    7.1   318    10.7   986.2    0.00 
 147   20:30   0.00   58.3    82    6.7   321     9.1   986.4    0.00 
 147   20:40   0.00   58.1    83    5.9   308     8.4   986.5    0.00 
 147   20:50   0.00   58.2    82    5.1   328     7.3   986.5    0.00 
 147   21:00   0.00   58.2    82    3.9   336     6.1   986.5    0.00 
 147   21:10   0.00   58.2    82    3.1   330     4.7   986.6    0.00 
 147   21:20   0.00   58.4    82    3.0   321     4.5   986.6    0.00 
 147   21:30   0.00   58.4    82    3.0   312     4.6   986.6    0.00 
 147   21:40   0.00   58.4    82    2.4   320     4.5   986.6    0.00 
 147   21:50   0.00   58.3    83    2.7   296     4.2   986.5    0.00 
 147   22:00   0.00   58.2    83    3.6   297     4.7   986.5    0.00 
 147   22:10   0.00   58.2    83    3.8   292     5.3   986.6    0.00 
 147   22:20   0.00   58.0    83    3.9   301     5.3   986.5    0.00 
 147   22:30   0.00   57.8    84    4.0   289     4.9   986.5    0.00 
 147   22:40   0.00   57.8    84    5.2   285     6.4   986.4    0.00 
 147   22:50   0.00   58.0    84    4.5   288     5.3   986.5    0.00 
 147   23:00   0.00   58.2    84    3.9   296     5.3   986.4    0.00 
 147   23:10   0.00   58.3    83    4.6   299     5.6   986.3    0.00 
 147   23:20   0.00   58.3    83    4.9   298     6.4   986.3    0.00 
 147   23:30   0.00   58.3    83    3.9   308     5.8   986.3    0.00 
 147   23:40   0.00   58.3    83    3.0   337     5.1   986.2    0.00 
 147   23:50   0.00   58.2    84    1.3   330     3.5   986.3    0.00 
 148    0:00   0.00   58.2    84    1.2   281     2.6   986.2    0.00 
 148    0:10   0.00   58.4    83    2.2   319     3.7   986.1    0.00 
 148    0:20   0.00   58.2    84    2.9    10     4.6   986.1    0.00 
 148    0:30   0.00   57.9    84    3.4    13     5.1   986.0    0.00 
 148    0:40   0.00   57.8    85    3.8    72     5.5   985.9    0.00 
 148    0:50   0.00   57.7    85    3.3    41     5.1   985.8    0.00 
 148    1:00   0.00   57.5    85    3.5   348     5.7   985.6    0.00 
 148    1:10   0.00   57.4    86    1.9    54     5.3   985.7    0.00 
 148    1:20   0.00   57.5    86    1.5   328     3.1   985.6    0.00 
 148    1:30   0.00   57.5    86    2.4   313     3.5   985.5    0.00 
 148    1:40   0.00   57.4    86    2.2   302     3.6   985.4    0.00 
 148    1:50   0.00   57.4    86    2.4   323     5.0   985.3    0.00 
 148    2:00   0.00   57.3    86    2.1   347     5.3   985.3    0.00 
 148    2:10   0.00   57.5    86    1.0   312     3.1   985.3    0.00 
 148    2:20   0.00   57.4    86    3.4   286     5.6   985.2    0.00 
 148    2:30   0.00   57.3    87    3.5   281     5.0   985.3    0.00 
 148    2:40   0.00   57.1    87    4.4   288     5.8   985.3    0.00 
 148    2:50   0.00   57.0    87    4.0   305     5.8   985.3    0.00 
 148    3:00   0.00   57.0    87    2.0   338     5.4   985.3    0.00 
 148    3:10   0.00   57.1    87    3.2   337     5.3   985.3    0.00 
 148    3:20   0.00   56.9    88    4.1   320     7.3   985.4    0.00 
 148    3:30   0.00   57.0    88    1.2   330     3.7   985.4    0.00 
 148    3:40   0.00   57.0    88    2.6   341     5.0   985.4    0.00 
 148    3:50   0.00   57.1    88    1.4    26     4.8   985.5    0.00 
 148    4:00   0.00   57.3    87    1.2   316     2.0   985.5    0.00 
 148    4:10   0.00   57.3    87    2.1    78     4.0   985.5    0.00 
 148    4:20   0.00   57.2    87    3.1    73     4.0   985.5    0.00 
 148    4:30   0.00   57.3    88    3.4    76     4.6   985.6    0.00 
 148    4:40   0.00   57.3    87    3.1    55     5.3   985.6    0.00 
 148    4:50   0.00   57.3    87    3.9    60     5.4   985.7    0.00 
 148    5:00   0.00   57.3    88    4.2    63     6.1   985.8    0.00 
 148    5:10   0.00   57.2    88    4.0    64     5.3   985.8    0.00 
 148    5:20   0.00   57.4    88    3.5    45     5.5   986.0    0.00 
 148    5:30   0.01   57.6    87    3.3    16     6.1   986.1    0.00 
 148    5:40   0.01   57.7    87    3.0    49     5.0   986.3    0.00 
 148    5:50   0.01   57.7    87    4.9     6     7.7   986.3    0.00 
 148    6:00   0.02   57.8    87    3.7   358     6.4   986.3    0.00 
 148    6:10   0.03   58.0    86    2.7     6     4.6   986.4    0.00 
 148    6:20   0.03   58.1    86    4.6   342     6.4   986.4    0.00 
 148    6:30   0.03   58.2    86    3.2   334     5.3   986.4    0.00 
 148    6:40   0.03   58.4    86    4.1   337     5.8   986.6    0.00 
 148    6:50   0.04   58.6    85    3.7   335     5.7   986.6    0.00 
 148    7:00   0.04   58.5    85    5.8   332     8.8   986.6    0.00 
 148    7:10   0.06   58.6    85    3.0   348     5.3   986.7    0.00 
 148    7:20   0.06   59.0    84    4.0   346     6.1   986.7    0.00 
 148    7:30   0.08   59.1    84    3.4    23     6.1   986.8    0.00 
 148    7:40   0.08   59.4    83    3.3   356     5.3   986.9    0.00 
 148    7:50   0.08   59.4    83    4.5   343     9.3   986.9    0.00 
 148    8:00   0.08   59.4    83    3.6   328     6.3   986.9    0.00 
 148    8:10   0.10   59.9    82    5.0   324     7.6   986.9    0.00 
 148    8:20   0.11   59.9    82    3.4   336     7.2   986.9    0.00 
 148    8:30   0.13   60.4    81    2.3    24     5.8   986.9    0.00 

Return to Elliot Chaparral Reserve graphs page.


Western Regional Climate Center,wrcc@dri.edu